createdAt,value
2019-04-11T00:00:11.050Z,9.43
2019-04-11T00:02:40.577Z,9.30
2019-04-11T00:05:10.557Z,9.03
2019-04-11T00:07:39.181Z,8.53
2019-04-11T00:10:08.530Z,9.17
2019-04-11T00:12:36.946Z,8.43
2019-04-11T00:15:06.401Z,8.10
2019-04-11T00:17:34.952Z,8.37
2019-04-11T00:20:04.234Z,8.50
2019-04-11T00:22:33.284Z,8.07
2019-04-11T00:25:01.780Z,8.10
2019-04-11T00:27:30.594Z,8.27
2019-04-11T00:29:59.710Z,8.30
2019-04-11T00:32:28.259Z,8.97
2019-04-11T00:34:57.382Z,8.27
2019-04-11T00:37:27.263Z,8.00
2019-04-11T00:39:56.308Z,8.30
2019-04-11T00:42:24.823Z,8.70
2019-04-11T00:44:53.334Z,8.37
2019-04-11T00:47:22.730Z,7.87
2019-04-11T00:49:51.503Z,8.37
2019-04-11T00:52:20.569Z,8.00
2019-04-11T00:54:49.258Z,8.47
2019-04-11T00:57:18.763Z,8.50
2019-04-11T00:59:47.379Z,8.63
2019-04-11T01:02:15.875Z,8.50
2019-04-11T01:04:45.271Z,9.10
2019-04-11T01:07:14.479Z,8.70
2019-04-11T01:09:44.262Z,8.60
2019-04-11T01:12:12.802Z,8.10
2019-04-11T01:14:41.258Z,8.67
2019-04-11T01:17:09.674Z,8.97
2019-04-11T01:19:38.614Z,8.37
2019-04-11T01:22:07.707Z,7.90
2019-04-11T01:24:36.356Z,8.13
2019-04-11T01:27:05.613Z,8.03
2019-04-11T01:29:34.179Z,8.50
2019-04-11T01:32:04.315Z,8.37
2019-04-11T01:34:32.991Z,7.97
2019-04-11T01:37:01.718Z,8.50
2019-04-11T01:39:50.007Z,8.10
2019-04-11T01:42:19.455Z,9.00
2019-04-11T01:44:49.239Z,9.10
2019-04-11T01:47:20.480Z,8.20
2019-04-11T01:49:49.026Z,8.53
2019-04-11T01:52:18.199Z,8.73
2019-04-11T01:54:47.944Z,9.67
2019-04-11T01:57:16.519Z,8.50
2019-04-11T01:59:45.874Z,9.53
2019-04-11T02:02:22.245Z,8.40
2019-04-11T02:05:08.359Z,8.60
2019-04-11T02:07:36.999Z,8.80
2019-04-11T02:10:07.075Z,8.73
2019-04-11T02:12:35.531Z,8.77
2019-04-11T02:15:08.407Z,9.20
2019-04-11T02:17:37.032Z,8.83
2019-04-11T02:20:07.210Z,8.90
2019-04-11T02:22:40.471Z,8.73
2019-04-11T02:25:14.483Z,8.60
2019-04-11T02:27:44.227Z,8.43
2019-04-11T02:30:14.153Z,7.90
2019-04-11T02:32:44.920Z,9.07
2019-04-11T02:35:15.311Z,8.60
2019-04-11T02:37:44.402Z,8.07
2019-04-11T02:40:15.355Z,8.60
2019-04-11T02:42:45.502Z,8.50
2019-04-11T02:45:27.628Z,8.33
2019-04-11T02:47:47.729Z,9.20
2019-04-11T02:50:18.653Z,9.00
2019-04-11T02:52:47.205Z,8.80
2019-04-11T02:55:17.105Z,8.73
2019-04-11T02:57:46.129Z,9.00
2019-04-11T03:00:15.983Z,9.27
2019-04-11T03:02:47.667Z,8.80
2019-04-11T03:05:16.387Z,7.47
2019-04-11T03:07:45.849Z,8.63
2019-04-11T03:10:16.350Z,8.43
2019-04-11T03:12:46.458Z,8.90
2019-04-11T03:15:33.919Z,8.10
2019-04-11T03:17:47.957Z,9.33
2019-04-11T03:20:26.448Z,9.10
2019-04-11T03:22:54.156Z,9.00
2019-04-11T03:25:16.430Z,8.47
2019-04-11T03:27:45.336Z,8.77
2019-04-11T03:30:21.005Z,8.70
2019-04-11T03:33:42.962Z,8.27
2019-04-11T03:38:05.909Z,8.23
2019-04-11T03:40:36.513Z,8.93
2019-04-11T03:43:04.309Z,8.53
2019-04-11T03:45:38.561Z,9.67
2019-04-11T03:48:06.193Z,9.37
2019-04-11T03:50:23.330Z,9.40
2019-04-11T03:52:49.732Z,8.97
2019-04-11T03:55:21.686Z,9.07
2019-04-11T03:57:51.796Z,9.57
2019-04-11T04:00:21.629Z,10.10
2019-04-11T04:02:52.445Z,10.70
2019-04-11T04:05:21.703Z,9.53
2019-04-11T04:07:50.426Z,9.63
2019-04-11T04:10:21.151Z,9.23
2019-04-11T04:12:51.472Z,11.10
2019-04-11T04:15:44.289Z,9.70
2019-04-11T04:18:10.947Z,9.97
2019-04-11T04:20:48.926Z,9.10
2019-04-11T04:23:20.862Z,8.77
2019-04-11T04:25:51.484Z,9.30
2019-04-11T04:28:21.551Z,9.17
2019-04-11T04:30:51.593Z,9.63
2019-04-11T04:33:22.261Z,9.07
2019-04-11T04:35:51.832Z,8.90
2019-04-11T04:38:23.309Z,9.63
2019-04-11T04:41:07.483Z,9.00
2019-04-11T04:43:25.151Z,8.53
2019-04-11T04:46:13.617Z,9.27
2019-04-11T04:48:27.026Z,9.00
2019-04-11T04:50:57.125Z,8.67
2019-04-11T04:53:26.566Z,9.03
2019-04-11T04:55:55.155Z,9.83
2019-04-11T04:58:24.913Z,9.83
2019-04-11T05:00:55.781Z,9.47
2019-04-11T05:03:24.615Z,9.17
2019-04-11T05:05:55.302Z,9.77
2019-04-11T05:08:25.010Z,10.00
2019-04-11T05:10:53.677Z,9.57
2019-04-11T05:13:23.683Z,11.30
2019-04-11T05:16:05.726Z,10.13
2019-04-11T05:18:23.696Z,9.50
2019-04-11T05:20:52.731Z,9.47
2019-04-11T05:23:21.458Z,9.70
2019-04-11T05:25:50.870Z,11.53
2019-04-11T05:28:19.443Z,12.33
2019-04-11T05:30:49.118Z,9.67
2019-04-11T05:33:17.930Z,9.90
2019-04-11T05:35:46.561Z,9.93
2019-04-11T05:38:15.091Z,10.90
2019-04-11T05:40:43.570Z,10.33
2019-04-11T05:43:12.033Z,10.87
2019-04-11T05:45:40.552Z,11.13
2019-04-11T05:48:11.592Z,10.50
2019-04-11T05:50:45.451Z,10.47
2019-04-11T05:53:11.494Z,10.73
2019-04-11T05:55:43.268Z,9.90
2019-04-11T05:58:14.092Z,10.80
2019-04-11T06:00:51.077Z,10.40
2019-04-11T06:03:19.595Z,10.70
2019-04-11T06:06:00.748Z,11.63
2019-04-11T06:08:30.783Z,11.23
2019-04-11T06:11:16.476Z,10.47
2019-04-11T06:13:45.283Z,10.13
2019-04-11T06:16:14.641Z,10.67
2019-04-11T06:18:50.861Z,9.90
2019-04-11T06:21:28.309Z,9.93
2019-04-11T06:24:16.336Z,10.30
2019-04-11T06:26:47.058Z,10.03
2019-04-11T06:29:23.437Z,10.10
2019-04-11T06:32:09.971Z,10.00
2019-04-11T06:34:40.053Z,9.83
2019-04-11T06:37:10.215Z,10.33
2019-04-11T06:39:43.325Z,10.13
2019-04-11T06:42:13.494Z,10.33
2019-04-11T06:44:52.648Z,9.60
2019-04-11T06:47:22.958Z,9.23
2019-04-11T06:50:02.807Z,9.00
2019-04-11T06:52:31.431Z,9.70
2019-04-11T06:55:02.560Z,9.00
2019-04-11T06:57:34.097Z,8.60
2019-04-11T07:00:05.160Z,8.80
2019-04-11T07:02:35.468Z,8.90
2019-04-11T07:05:09.065Z,10.77
2019-04-11T07:07:40.819Z,10.07
2019-04-11T07:10:09.796Z,8.70
2019-04-11T07:12:42.835Z,8.40
2019-04-11T07:15:14.432Z,8.37
2019-04-11T07:18:01.108Z,7.90
2019-04-11T07:20:33.890Z,7.90
2019-04-11T07:23:20.156Z,7.60
2019-04-11T07:26:08.356Z,7.47
2019-04-11T07:28:41.752Z,8.07
2019-04-11T07:31:30.001Z,7.60
2019-04-11T07:34:00.867Z,7.73
2019-04-11T07:36:48.317Z,7.73
2019-04-11T07:39:24.670Z,7.83
2019-04-11T07:41:56.060Z,7.53
2019-04-11T07:44:28.667Z,7.90
2019-04-11T07:47:19.215Z,8.00
2019-04-11T07:49:49.650Z,7.77
2019-04-11T07:52:20.253Z,7.53
2019-04-11T07:54:48.895Z,7.33
2019-04-11T07:57:22.640Z,7.43
2019-04-11T08:00:01.696Z,7.00
2019-04-11T08:02:40.923Z,7.00
2019-04-11T08:05:28.136Z,7.03
2019-04-11T08:08:06.275Z,7.93
2019-04-11T08:10:38.856Z,7.10
2019-04-11T08:13:14.939Z,7.47
2019-04-11T08:16:02.215Z,6.80
2019-04-11T08:18:48.722Z,7.70
2019-04-11T08:21:33.217Z,7.17
2019-04-11T08:24:02.721Z,7.50
2019-04-11T08:26:49.064Z,7.07
2019-04-11T08:29:20.049Z,7.10
2019-04-11T08:32:05.243Z,7.33
2019-04-11T08:34:35.438Z,7.37
2019-04-11T08:37:23.283Z,7.60
2019-04-11T08:39:53.376Z,7.33
2019-04-11T08:42:33.647Z,7.73
2019-04-11T08:45:02.236Z,7.13
2019-04-11T08:47:41.703Z,7.13
2019-04-11T08:50:02.551Z,7.60
2019-04-11T08:52:32.852Z,7.80
2019-04-11T08:55:04.215Z,7.80
2019-04-11T08:57:41.531Z,8.00
2019-04-11T09:00:24.254Z,7.47
2019-04-11T09:02:55.471Z,7.67
2019-04-11T09:05:38.789Z,7.50
2019-04-11T09:08:14.738Z,7.40
2019-04-11T09:10:44.804Z,7.63
2019-04-11T09:13:15.304Z,8.30
2019-04-11T09:16:01.837Z,7.57
2019-04-11T09:18:32.378Z,7.90
2019-04-11T09:21:20.227Z,7.90
2019-04-11T09:23:48.869Z,7.17
2019-04-11T09:26:36.064Z,7.23
2019-04-11T09:29:05.988Z,8.03
2019-04-11T09:31:53.832Z,7.93
2019-04-11T09:34:30.334Z,7.83
2019-04-11T09:37:01.008Z,7.60
2019-04-11T09:39:49.337Z,7.60
2019-04-11T09:42:26.143Z,7.43
2019-04-11T09:44:57.165Z,7.50
2019-04-11T09:47:33.218Z,7.20
2019-04-11T09:50:20.412Z,7.37
2019-04-11T09:52:51.609Z,7.43
2019-04-11T09:55:21.861Z,8.07
2019-04-11T09:57:52.554Z,7.53
2019-04-11T10:00:38.984Z,7.60
2019-04-11T10:03:09.140Z,7.23
2019-04-11T10:05:42.642Z,6.80
2019-04-11T10:08:12.838Z,7.37
2019-04-11T10:10:59.682Z,7.43
2019-04-11T10:13:33.953Z,7.40
2019-04-11T10:16:04.656Z,7.47
2019-04-11T10:18:51.542Z,7.37
2019-04-11T10:21:23.017Z,7.70
2019-04-11T10:23:53.477Z,7.27
2019-04-11T10:26:22.052Z,7.33
2019-04-11T10:28:52.115Z,6.90
2019-04-11T10:31:20.579Z,7.07
2019-04-11T10:33:50.651Z,7.70
2019-04-11T10:36:23.692Z,7.97
2019-04-11T10:39:11.059Z,7.57
2019-04-11T10:41:42.056Z,7.23
2019-04-11T10:44:12.194Z,7.33
2019-04-11T10:46:47.963Z,7.60
2019-04-11T10:49:30.368Z,7.27
2019-04-11T10:52:00.585Z,7.83
2019-04-11T10:54:31.284Z,7.70
2019-04-11T10:57:03.470Z,8.10
2019-04-11T10:59:34.493Z,7.70
2019-04-11T11:02:29.376Z,7.57
2019-04-11T11:04:59.053Z,8.17
2019-04-11T11:07:29.010Z,7.27
2019-04-11T11:09:59.090Z,7.23
2019-04-11T11:12:45.403Z,7.90
2019-04-11T11:15:21.581Z,8.47
2019-04-11T11:18:20.327Z,7.80
2019-04-11T11:20:50.103Z,7.67
2019-04-11T11:23:29.104Z,7.30
2019-04-11T11:26:12.619Z,7.63
2019-04-11T11:29:00.469Z,7.23
2019-04-11T11:31:38.567Z,8.13
2019-04-11T11:34:09.310Z,8.27
2019-04-11T11:36:49.975Z,7.17
2019-04-11T11:39:31.003Z,7.60
2019-04-11T11:42:04.192Z,7.77
2019-04-11T11:44:53.108Z,8.43
2019-04-11T11:47:41.436Z,7.97
2019-04-11T11:50:18.785Z,8.03
2019-04-11T11:52:55.988Z,7.30
2019-04-11T11:55:29.460Z,8.00
2019-04-11T11:58:05.305Z,7.87
2019-04-11T12:00:33.914Z,7.97
2019-04-11T12:03:05.208Z,8.03
2019-04-11T12:05:39.088Z,8.47
2019-04-11T12:08:16.565Z,8.53
2019-04-11T12:10:46.970Z,7.93
2019-04-11T12:13:20.008Z,9.20
2019-04-11T12:15:53.277Z,8.60
2019-04-11T12:18:43.950Z,8.87
2019-04-11T12:21:11.479Z,7.93
2019-04-11T12:23:55.476Z,8.50
2019-04-11T12:26:16.483Z,7.97
2019-04-11T12:28:47.884Z,8.43
2019-04-11T12:31:17.521Z,8.00
2019-04-11T12:33:52.058Z,8.73
2019-04-11T12:36:23.023Z,8.30
2019-04-11T12:39:08.556Z,8.93
2019-04-11T12:41:41.512Z,9.17
2019-04-11T12:44:17.536Z,9.33
2019-04-11T12:47:07.609Z,9.03
2019-04-11T12:49:52.726Z,9.03
2019-04-11T12:52:34.710Z,8.37
2019-04-11T12:55:08.163Z,8.73
2019-04-11T12:57:54.753Z,10.43
2019-04-11T13:00:41.266Z,10.73
2019-04-11T13:03:20.640Z,10.17
2019-04-11T13:05:50.765Z,9.57
2019-04-11T13:08:32.783Z,9.33
2019-04-11T13:11:01.409Z,10.20
2019-04-11T13:13:31.522Z,8.70
2019-04-11T13:16:11.355Z,8.27
2019-04-11T13:18:36.506Z,8.40
2019-04-11T13:21:15.435Z,9.03
2019-04-11T13:23:57.459Z,8.07
2019-04-11T13:26:43.794Z,8.07
2019-04-11T13:29:29.100Z,8.50
2019-04-11T13:32:15.728Z,8.63
2019-04-11T13:34:45.857Z,7.90
2019-04-11T13:37:32.259Z,8.63
2019-04-11T13:40:08.323Z,8.80
2019-04-11T13:42:50.323Z,9.00
2019-04-11T13:45:19.586Z,9.40
2019-04-11T13:48:05.945Z,9.40
2019-04-11T13:50:35.941Z,8.93
2019-04-11T13:53:22.690Z,8.80
2019-04-11T13:55:51.179Z,8.80
2019-04-11T13:58:21.287Z,8.40
2019-04-11T14:00:49.793Z,8.73
2019-04-11T14:03:25.844Z,9.17
2019-04-11T14:05:56.451Z,8.67
2019-04-11T14:08:26.629Z,8.90
2019-04-11T14:11:11.478Z,9.70
2019-04-11T14:13:41.709Z,9.53
2019-04-11T14:16:11.991Z,8.53
2019-04-11T14:18:58.079Z,8.53
2019-04-11T14:21:28.164Z,8.80
2019-04-11T14:24:04.460Z,8.17
2019-04-11T14:26:37.251Z,8.57
2019-04-11T14:29:10.260Z,7.77
2019-04-11T14:31:46.029Z,7.43
2019-04-11T14:34:18.885Z,8.50
2019-04-11T14:37:05.331Z,8.27
2019-04-11T14:39:38.091Z,7.80
2019-04-11T14:42:26.341Z,8.23
2019-04-11T14:44:55.876Z,8.53
2019-04-11T14:47:39.328Z,8.50
2019-04-11T14:50:13.306Z,8.60
2019-04-11T14:52:49.277Z,8.57
2019-04-11T14:55:19.624Z,8.40
2019-04-11T14:57:55.918Z,8.00
2019-04-11T15:00:26.140Z,8.00
2019-04-11T15:03:12.394Z,7.30
2019-04-11T15:05:44.571Z,8.30
2019-04-11T15:08:14.962Z,7.73
2019-04-11T15:10:49.432Z,7.87
2019-04-11T15:13:19.635Z,7.60
2019-04-11T15:15:55.750Z,8.60
2019-04-11T15:18:26.585Z,7.30
2019-04-11T15:21:14.188Z,7.80
2019-04-11T15:23:42.728Z,7.60
2019-04-11T15:26:24.678Z,8.67
2019-04-11T15:29:00.301Z,8.33
2019-04-11T15:31:39.166Z,8.20
2019-04-11T15:34:14.109Z,8.37
2019-04-11T15:36:44.214Z,7.97
2019-04-11T15:39:30.915Z,8.47
2019-04-11T15:42:02.337Z,8.30
2019-04-11T15:44:47.471Z,8.70
2019-04-11T15:47:19.075Z,7.67
2019-04-11T15:50:05.505Z,7.97
2019-04-11T15:52:34.727Z,8.20
2019-04-11T15:55:12.761Z,8.20
2019-04-11T15:57:43.016Z,8.90
2019-04-11T16:00:18.895Z,8.07
2019-04-11T16:02:48.979Z,8.17
2019-04-11T16:05:21.903Z,7.77
2019-04-11T16:08:08.763Z,8.03
2019-04-11T16:10:42.894Z,8.60
2019-04-11T16:13:28.335Z,8.70
2019-04-11T16:16:06.700Z,7.60
2019-04-11T16:18:42.154Z,8.30
2019-04-11T16:21:28.754Z,8.13
2019-04-11T16:24:02.036Z,8.37
2019-04-11T16:26:34.794Z,8.40
2019-04-11T16:29:16.550Z,8.13
2019-04-11T16:31:45.349Z,8.30
2019-04-11T16:34:33.288Z,8.50
2019-04-11T16:37:01.815Z,7.83
2019-04-11T16:39:37.896Z,8.27
2019-04-11T16:42:07.997Z,8.07
2019-04-11T16:44:46.167Z,8.27
2019-04-11T16:47:25.664Z,8.90
2019-04-11T16:49:52.383Z,8.33
2019-04-11T16:52:20.943Z,8.30
2019-04-11T16:54:49.399Z,8.10
2019-04-11T16:57:17.859Z,8.50
2019-04-11T16:59:49.560Z,7.60
2019-04-11T17:02:16.507Z,8.20
2019-04-11T17:04:44.976Z,8.10
2019-04-11T17:07:15.066Z,8.23
2019-04-11T17:09:45.169Z,7.90
2019-04-11T17:12:13.734Z,7.83
2019-04-11T17:14:42.212Z,8.20
2019-04-11T17:17:15.179Z,9.07
2019-04-11T17:19:40.895Z,8.40
2019-04-11T17:22:09.429Z,7.87
2019-04-11T17:24:37.873Z,8.17
2019-04-11T17:27:06.336Z,8.10
2019-04-11T17:29:34.784Z,8.10
2019-04-11T17:32:03.243Z,8.30
2019-04-11T17:34:32.315Z,8.23
2019-04-11T17:37:02.728Z,11.97
2019-04-11T17:39:31.608Z,8.17
2019-04-11T17:42:00.177Z,8.17
2019-04-11T17:44:28.655Z,7.90
2019-04-11T17:46:57.397Z,8.43
2019-04-11T17:49:25.949Z,8.40
2019-04-11T17:51:56.030Z,7.60
2019-04-11T17:54:24.976Z,8.03
2019-04-11T17:56:54.929Z,8.30
2019-04-11T17:59:28.072Z,7.67
2019-04-11T18:01:54.428Z,8.27
2019-04-11T18:04:22.881Z,7.67
2019-04-11T18:06:51.311Z,7.77
2019-04-11T18:09:20.449Z,7.60
2019-04-11T18:11:49.992Z,7.57
2019-04-11T18:14:18.465Z,7.97
2019-04-11T18:16:46.911Z,7.70
2019-04-11T18:19:15.372Z,7.93
2019-04-11T18:21:43.907Z,7.57
2019-04-11T18:24:12.384Z,8.67
2019-04-11T18:26:40.909Z,8.23
2019-04-11T18:29:09.499Z,7.77
2019-04-11T18:31:38.070Z,8.13
2019-04-11T18:34:06.579Z,8.77
2019-04-11T18:36:37.258Z,8.10
2019-04-11T18:39:06.707Z,7.80
2019-04-11T18:41:35.210Z,7.50
2019-04-11T18:44:03.835Z,7.73
2019-04-11T18:46:32.262Z,7.73
2019-04-11T18:49:00.679Z,8.00
2019-04-11T18:51:30.406Z,7.80
2019-04-11T18:53:59.060Z,7.67
2019-04-11T18:56:27.513Z,7.60
2019-04-11T18:58:55.939Z,7.63
2019-04-11T19:01:24.522Z,7.47
2019-04-11T19:03:53.022Z,7.27
2019-04-11T19:06:27.721Z,7.63
2019-04-11T19:08:51.881Z,7.90
2019-04-11T19:11:20.777Z,8.03
2019-04-11T19:13:49.476Z,8.37
2019-04-11T19:16:18.075Z,7.90
2019-04-11T19:18:47.597Z,8.30
2019-04-11T19:21:20.086Z,7.93
2019-04-11T19:23:47.264Z,7.63
2019-04-11T19:26:15.731Z,8.10
2019-04-11T19:28:44.241Z,8.53
2019-04-11T19:31:12.798Z,7.47
2019-04-11T19:33:41.239Z,7.93
2019-04-11T19:36:10.104Z,7.73
2019-04-11T19:38:42.988Z,7.63
2019-04-11T19:41:10.049Z,7.77
2019-04-11T19:43:40.691Z,7.67
2019-04-11T19:46:08.674Z,7.50
2019-04-11T19:48:37.107Z,7.67
2019-04-11T19:51:05.689Z,8.27
2019-04-11T19:53:34.289Z,14.67
2019-04-11T19:56:12.927Z,7.50
2019-04-11T19:58:41.527Z,7.63
2019-04-11T20:01:10.095Z,7.70
2019-04-11T20:03:38.633Z,7.80
2019-04-11T20:06:07.063Z,7.50
2019-04-11T20:08:35.536Z,7.90
2019-04-11T20:11:04.485Z,7.63
2019-04-11T20:13:32.944Z,7.60
2019-04-11T20:16:01.500Z,7.63
2019-04-11T20:18:29.958Z,7.00
2019-04-11T20:20:58.412Z,7.47
2019-04-11T20:23:26.856Z,7.63
2019-04-11T20:25:55.306Z,7.17
2019-04-11T20:28:23.757Z,7.13
2019-04-11T20:30:52.216Z,7.47
2019-04-11T20:33:26.980Z,7.77
2019-04-11T20:35:50.900Z,7.80
2019-04-11T20:38:19.350Z,7.50
2019-04-11T20:40:52.071Z,7.60
2019-04-11T20:43:18.000Z,7.33
2019-04-11T20:45:46.544Z,7.77
2019-04-11T20:48:14.974Z,7.23
2019-04-11T20:50:43.526Z,8.03
2019-04-11T20:53:12.836Z,7.40
2019-04-11T20:55:41.925Z,8.03
2019-04-11T20:58:11.074Z,6.87
2019-04-11T21:00:50.119Z,7.57
2019-04-11T21:03:10.735Z,7.80
2019-04-11T21:05:39.167Z,7.50
2019-04-11T21:08:07.589Z,7.17
2019-04-11T21:10:36.039Z,7.27
2019-04-11T21:13:06.937Z,8.17
2019-04-11T21:15:34.729Z,7.57
2019-04-11T21:18:03.222Z,7.87
2019-04-11T21:20:31.684Z,7.50
2019-04-11T21:23:00.177Z,7.40
2019-04-11T21:25:29.142Z,7.47
2019-04-11T21:27:59.120Z,8.37
2019-04-11T21:30:27.968Z,7.73
2019-04-11T21:32:58.059Z,9.43
2019-04-11T21:35:26.510Z,7.47
2019-04-11T21:37:54.951Z,7.20
2019-04-11T21:40:23.456Z,9.30
2019-04-11T21:42:51.908Z,7.77
2019-04-11T21:45:20.439Z,7.80
2019-04-11T21:47:49.014Z,7.70
2019-04-11T21:50:17.560Z,7.57
2019-04-11T21:52:46.168Z,7.50
2019-04-11T21:55:16.035Z,8.00
2019-04-11T21:57:48.417Z,7.90
2019-04-11T22:00:22.146Z,8.20
2019-04-11T22:02:49.371Z,7.63
2019-04-11T22:05:17.858Z,7.23
2019-04-11T22:07:46.355Z,7.70
2019-04-11T22:10:15.234Z,8.43
2019-04-11T22:12:43.675Z,7.87
2019-04-11T22:15:12.643Z,8.20
2019-04-11T22:17:42.957Z,7.93
2019-04-11T22:20:11.342Z,7.53
2019-04-11T22:22:39.807Z,7.93
2019-04-11T22:25:08.384Z,7.73
2019-04-11T22:27:36.820Z,8.43
2019-04-11T22:30:07.856Z,8.60
2019-04-11T22:32:36.390Z,8.20
2019-04-11T22:35:05.864Z,8.60
2019-04-11T22:37:34.385Z,9.20
2019-04-11T22:40:03.297Z,8.77
2019-04-11T22:42:31.856Z,8.60
2019-04-11T22:45:00.306Z,7.97
2019-04-11T22:47:28.743Z,7.87
2019-04-11T22:49:57.171Z,7.90
2019-04-11T22:52:25.631Z,8.23
2019-04-11T22:54:54.093Z,8.80
2019-04-11T22:57:22.548Z,8.67
2019-04-11T22:59:51.015Z,8.13
2019-04-11T23:02:26.993Z,9.00
2019-04-11T23:04:55.444Z,8.23
2019-04-11T23:07:23.903Z,8.97
2019-04-11T23:09:52.351Z,8.43
2019-04-11T23:12:20.788Z,8.60
2019-04-11T23:14:49.231Z,8.53
2019-04-11T23:17:17.675Z,9.17
2019-04-11T23:19:46.180Z,8.27
2019-04-11T23:22:14.619Z,8.67
2019-04-11T23:24:43.058Z,8.00
2019-04-11T23:27:11.499Z,9.00
2019-04-11T23:29:39.982Z,8.40
2019-04-11T23:32:08.408Z,8.60
2019-04-11T23:34:36.873Z,8.90
2019-04-11T23:37:05.311Z,8.50
2019-04-11T23:39:33.763Z,8.17
2019-04-11T23:42:02.200Z,8.80
2019-04-11T23:44:30.638Z,8.63
2019-04-11T23:46:59.069Z,7.87
2019-04-11T23:49:27.518Z,8.73
2019-04-11T23:51:56.540Z,8.10
2019-04-11T23:54:29.042Z,8.63
2019-04-11T23:56:55.398Z,8.30
2019-04-11T23:59:23.863Z,8.33
